sensor_id;sensor_type;location;lat;lon;timestamp;pressure;altitude;pressure_sealevel;temperature;humidity
61618;BME280;47518;51.776;9.370;2023-05-19T00:00:33;101308.34;;;7.98;76.86
61618;BME280;47518;51.776;9.370;2023-05-19T00:03:01;101306.72;;;7.85;77.40
61618;BME280;47518;51.776;9.370;2023-05-19T00:05:27;101307.06;;;7.92;78.02
61618;BME280;47518;51.776;9.370;2023-05-19T00:07:58;101302.22;;;7.96;77.13
61618;BME280;47518;51.776;9.370;2023-05-19T00:10:24;101306.91;;;7.63;77.89
61618;BME280;47518;51.776;9.370;2023-05-19T00:12:56;101312.59;;;7.60;78.03
61618;BME280;47518;51.776;9.370;2023-05-19T00:15:21;101301.03;;;7.58;77.55
61618;BME280;47518;51.776;9.370;2023-05-19T00:17:46;101301.03;;;7.58;77.62
61618;BME280;47518;51.776;9.370;2023-05-19T00:20:12;101301.53;;;7.42;78.73
61618;BME280;47518;51.776;9.370;2023-05-19T00:22:38;101293.91;;;7.36;79.58
61618;BME280;47518;51.776;9.370;2023-05-19T00:25:04;101298.25;;;7.27;80.36
61618;BME280;47518;51.776;9.370;2023-05-19T00:27:30;101296.22;;;7.41;80.16
61618;BME280;47518;51.776;9.370;2023-05-19T00:29:55;101302.34;;;7.64;78.18
61618;BME280;47518;51.776;9.370;2023-05-19T00:32:20;101299.31;;;7.78;77.32
61618;BME280;47518;51.776;9.370;2023-05-19T00:34:46;101296.47;;;7.79;77.15
61618;BME280;47518;51.776;9.370;2023-05-19T00:37:12;101294.53;;;7.91;76.08
61618;BME280;47518;51.776;9.370;2023-05-19T00:39:38;101285.53;;;7.90;76.14
61618;BME280;47518;51.776;9.370;2023-05-19T00:42:03;101297.00;;;8.04;75.30
61618;BME280;47518;51.776;9.370;2023-05-19T00:44:30;101293.25;;;7.95;75.75
61618;BME280;47518;51.776;9.370;2023-05-19T00:46:56;101294.72;;;7.99;76.61
61618;BME280;47518;51.776;9.370;2023-05-19T00:49:21;101288.13;;;7.92;75.96
61618;BME280;47518;51.776;9.370;2023-05-19T00:51:47;101293.81;;;7.99;76.68
61618;BME280;47518;51.776;9.370;2023-05-19T00:54:13;101288.56;;;7.97;75.44
61618;BME280;47518;51.776;9.370;2023-05-19T00:56:39;101292.38;;;7.95;76.19
61618;BME280;47518;51.776;9.370;2023-05-19T00:59:05;101284.81;;;7.88;76.74
61618;BME280;47518;51.776;9.370;2023-05-19T01:01:30;101282.72;;;7.71;75.95
61618;BME280;47518;51.776;9.370;2023-05-19T01:03:56;101285.13;;;7.65;76.79
61618;BME280;47518;51.776;9.370;2023-05-19T01:06:23;101277.03;;;7.74;77.73
61618;BME280;47518;51.776;9.370;2023-05-19T01:08:49;101282.06;;;7.79;75.95
61618;BME280;47518;51.776;9.370;2023-05-19T01:11:15;101285.06;;;7.55;77.90
61618;BME280;47518;51.776;9.370;2023-05-19T01:13:41;101281.66;;;7.53;77.42
61618;BME280;47518;51.776;9.370;2023-05-19T01:16:13;101282.63;;;7.52;77.39
61618;BME280;47518;51.776;9.370;2023-05-19T01:18:49;101277.03;;;7.23;77.85
61618;BME280;47518;51.776;9.370;2023-05-19T01:30:16;101281.00;;;7.19;78.10
61618;BME280;47518;51.776;9.370;2023-05-19T01:32:48;101272.53;;;7.12;79.11
61618;BME280;47518;51.776;9.370;2023-05-19T01:35:16;101270.69;;;7.13;79.37
61618;BME280;47518;51.776;9.370;2023-05-19T01:37:42;101274.19;;;7.24;77.99
61618;BME280;47518;51.776;9.370;2023-05-19T01:40:09;101274.78;;;7.28;79.05
61618;BME280;47518;51.776;9.370;2023-05-19T01:42:36;101277.38;;;7.29;78.06
61618;BME280;47518;51.776;9.370;2023-05-19T01:45:05;101280.00;;;7.20;77.92
61618;BME280;47518;51.776;9.370;2023-05-19T01:47:35;101279.31;;;7.48;77.96
61618;BME280;47518;51.776;9.370;2023-05-19T01:50:03;101280.69;;;7.64;76.95
61618;BME280;47518;51.776;9.370;2023-05-19T01:52:28;101282.09;;;7.58;77.85
61618;BME280;47518;51.776;9.370;2023-05-19T01:54:53;101284.34;;;7.53;77.25
61618;BME280;47518;51.776;9.370;2023-05-19T01:57:27;101282.81;;;7.39;78.33
61618;BME280;47518;51.776;9.370;2023-05-19T02:08:40;101288.81;;;7.64;76.05
61618;BME280;47518;51.776;9.370;2023-05-19T02:11:12;101286.00;;;7.44;77.51
61618;BME280;47518;51.776;9.370;2023-05-19T02:13:39;101287.78;;;7.55;76.73
61618;BME280;47518;51.776;9.370;2023-05-19T02:16:09;101284.94;;;7.56;76.81
61618;BME280;47518;51.776;9.370;2023-05-19T02:18:35;101290.13;;;7.69;76.28
61618;BME280;47518;51.776;9.370;2023-05-19T02:21:01;101287.09;;;7.63;76.50
61618;BME280;47518;51.776;9.370;2023-05-19T02:23:26;101287.94;;;7.63;76.38
61618;BME280;47518;51.776;9.370;2023-05-19T02:25:52;101282.44;;;7.65;76.71
61618;BME280;47518;51.776;9.370;2023-05-19T02:28:17;101275.84;;;7.57;76.78
61618;BME280;47518;51.776;9.370;2023-05-19T02:30:43;101283.22;;;7.55;77.30
61618;BME280;47518;51.776;9.370;2023-05-19T02:33:08;101268.72;;;7.36;78.36
61618;BME280;47518;51.776;9.370;2023-05-19T02:35:35;101272.47;;;7.44;78.11
61618;BME280;47518;51.776;9.370;2023-05-19T02:38:01;101270.09;;;7.51;76.49
61618;BME280;47518;51.776;9.370;2023-05-19T02:40:26;101266.84;;;7.57;77.09
61618;BME280;47518;51.776;9.370;2023-05-19T02:42:51;101266.38;;;7.52;77.42
61618;BME280;47518;51.776;9.370;2023-05-19T02:45:17;101270.09;;;7.51;77.35
61618;BME280;47518;51.776;9.370;2023-05-19T02:47:42;101264.88;;;7.38;77.83
61618;BME280;47518;51.776;9.370;2023-05-19T02:50:08;101256.91;;;7.16;78.23
61618;BME280;47518;51.776;9.370;2023-05-19T02:52:33;101261.38;;;7.26;77.74
61618;BME280;47518;51.776;9.370;2023-05-19T02:54:58;101256.25;;;7.02;78.24
61618;BME280;47518;51.776;9.370;2023-05-19T02:57:24;101270.28;;;6.96;79.35
61618;BME280;47518;51.776;9.370;2023-05-19T02:59:50;101249.53;;;6.97;78.69
61618;BME280;47518;51.776;9.370;2023-05-19T03:02:16;101253.53;;;7.02;77.67
61618;BME280;47518;51.776;9.370;2023-05-19T03:04:42;101255.97;;;7.06;77.77
61618;BME280;47518;51.776;9.370;2023-05-19T03:07:08;101259.22;;;6.99;79.33
61618;BME280;47518;51.776;9.370;2023-05-19T03:09:36;101261.44;;;6.94;78.00
61618;BME280;47518;51.776;9.370;2023-05-19T03:12:01;101265.16;;;6.82;78.50
61618;BME280;47518;51.776;9.370;2023-05-19T03:14:29;101272.41;;;6.82;78.43
61618;BME280;47518;51.776;9.370;2023-05-19T03:16:54;101259.94;;;7.01;77.19
61618;BME280;47518;51.776;9.370;2023-05-19T03:19:20;101269.44;;;6.96;77.80
61618;BME280;47518;51.776;9.370;2023-05-19T03:21:45;101261.03;;;6.78;78.22
61618;BME280;47518;51.776;9.370;2023-05-19T03:24:12;101258.09;;;6.70;78.98
61618;BME280;47518;51.776;9.370;2023-05-19T03:26:37;101257.03;;;6.61;79.08
61618;BME280;47518;51.776;9.370;2023-05-19T03:29:02;101249.25;;;6.36;80.09
61618;BME280;47518;51.776;9.370;2023-05-19T03:31:28;101256.75;;;6.32;80.31
61618;BME280;47518;51.776;9.370;2023-05-19T03:33:54;101259.44;;;6.32;79.36
61618;BME280;47518;51.776;9.370;2023-05-19T03:36:22;101255.41;;;6.38;79.39
61618;BME280;47518;51.776;9.370;2023-05-19T03:38:47;101253.31;;;6.30;79.63
61618;BME280;47518;51.776;9.370;2023-05-19T03:41:13;101254.00;;;6.43;78.47
61618;BME280;47518;51.776;9.370;2023-05-19T03:43:38;101262.09;;;6.55;79.02
61618;BME280;47518;51.776;9.370;2023-05-19T03:46:03;101256.28;;;6.59;78.65
61618;BME280;47518;51.776;9.370;2023-05-19T03:48:28;101259.81;;;6.71;78.20
61618;BME280;47518;51.776;9.370;2023-05-19T03:50:54;101263.75;;;6.67;78.51
61618;BME280;47518;51.776;9.370;2023-05-19T03:53:19;101276.03;;;6.71;78.38
61618;BME280;47518;51.776;9.370;2023-05-19T03:55:45;101270.38;;;6.74;78.75
61618;BME280;47518;51.776;9.370;2023-05-19T03:58:11;101267.81;;;6.72;79.56
61618;BME280;47518;51.776;9.370;2023-05-19T04:00:39;101267.88;;;6.82;78.69
61618;BME280;47518;51.776;9.370;2023-05-19T04:03:04;101261.06;;;6.67;79.33
61618;BME280;47518;51.776;9.370;2023-05-19T04:05:29;101265.97;;;6.73;78.44
61618;BME280;47518;51.776;9.370;2023-05-19T04:07:54;101263.06;;;6.54;79.28
61618;BME280;47518;51.776;9.370;2023-05-19T04:10:20;101267.00;;;6.61;79.34
61618;BME280;47518;51.776;9.370;2023-05-19T04:12:46;101270.56;;;6.82;77.50
61618;BME280;47518;51.776;9.370;2023-05-19T04:15:12;101274.22;;;6.92;77.63
61618;BME280;47518;51.776;9.370;2023-05-19T04:17:37;101276.41;;;6.98;76.82
61618;BME280;47518;51.776;9.370;2023-05-19T04:20:03;101275.56;;;6.98;77.79
61618;BME280;47518;51.776;9.370;2023-05-19T04:22:30;101274.41;;;6.80;78.65
61618;BME280;47518;51.776;9.370;2023-05-19T04:24:56;101278.53;;;6.95;78.04
61618;BME280;47518;51.776;9.370;2023-05-19T04:27:22;101272.25;;;6.94;78.69
61618;BME280;47518;51.776;9.370;2023-05-19T04:29:48;101267.91;;;7.03;78.21
61618;BME280;47518;51.776;9.370;2023-05-19T04:32:14;101275.75;;;7.06;79.19
61618;BME280;47518;51.776;9.370;2023-05-19T04:34:42;101272.34;;;7.25;78.63
61618;BME280;47518;51.776;9.370;2023-05-19T04:37:09;101278.03;;;7.43;77.89
61618;BME280;47518;51.776;9.370;2023-05-19T04:39:34;101280.38;;;7.57;76.58
61618;BME280;47518;51.776;9.370;2023-05-19T04:42:03;101282.06;;;7.79;76.78
61618;BME280;47518;51.776;9.370;2023-05-19T04:44:28;101276.66;;;7.79;76.92
61618;BME280;47518;51.776;9.370;2023-05-19T04:46:54;101281.56;;;7.64;75.30
61618;BME280;47518;51.776;9.370;2023-05-19T04:49:22;101286.31;;;7.51;77.58
61618;BME280;47518;51.776;9.370;2023-05-19T04:51:48;101285.59;;;7.49;77.34
61618;BME280;47518;51.776;9.370;2023-05-19T04:54:15;101287.94;;;7.63;76.56
61618;BME280;47518;51.776;9.370;2023-05-19T04:56:40;101280.22;;;7.79;76.10
61618;BME280;47518;51.776;9.370;2023-05-19T04:59:07;101288.47;;;7.78;76.08
61618;BME280;47518;51.776;9.370;2023-05-19T05:01:34;101278.72;;;7.96;74.75
61618;BME280;47518;51.776;9.370;2023-05-19T05:04:04;101280.06;;;8.11;75.38
61618;BME280;47518;51.776;9.370;2023-05-19T05:06:29;101273.28;;;8.27;75.84
61618;BME280;47518;51.776;9.370;2023-05-19T05:08:55;101270.78;;;8.54;75.44
61618;BME280;47518;51.776;9.370;2023-05-19T05:11:21;101272.81;;;8.71;74.02
61618;BME280;47518;51.776;9.370;2023-05-19T05:13:47;101281.81;;;8.82;74.24
61618;BME280;47518;51.776;9.370;2023-05-19T05:16:13;101272.09;;;8.89;73.14
61618;BME280;47518;51.776;9.370;2023-05-19T05:18:38;101266.97;;;9.15;72.53
61618;BME280;47518;51.776;9.370;2023-05-19T05:21:05;101269.97;;;9.21;71.98
61618;BME280;47518;51.776;9.370;2023-05-19T05:23:31;101268.06;;;9.51;70.84
61618;BME280;47518;51.776;9.370;2023-05-19T05:25:56;101267.13;;;9.70;70.39
61618;BME280;47518;51.776;9.370;2023-05-19T05:28:22;101278.84;;;9.70;70.40
61618;BME280;47518;51.776;9.370;2023-05-19T05:30:47;101271.97;;;9.85;68.55
61618;BME280;47518;51.776;9.370;2023-05-19T05:33:13;101273.84;;;10.12;68.44
61618;BME280;47518;51.776;9.370;2023-05-19T05:35:39;101267.78;;;10.28;67.79
61618;BME280;47518;51.776;9.370;2023-05-19T05:38:04;101268.34;;;10.32;67.81
61618;BME280;47518;51.776;9.370;2023-05-19T05:40:30;101262.75;;;10.33;67.20
61618;BME280;47518;51.776;9.370;2023-05-19T05:42:56;101258.22;;;10.69;67.77
61618;BME280;47518;51.776;9.370;2023-05-19T05:45:23;101262.03;;;10.94;65.85
61618;BME280;47518;51.776;9.370;2023-05-19T05:47:48;101264.97;;;10.83;64.77
61618;BME280;47518;51.776;9.370;2023-05-19T05:50:14;101263.13;;;10.84;64.72
61618;BME280;47518;51.776;9.370;2023-05-19T05:52:40;101255.88;;;11.10;66.88
61618;BME280;47518;51.776;9.370;2023-05-19T05:55:10;101260.34;;;11.37;67.73
61618;BME280;47518;51.776;9.370;2023-05-19T05:57:36;101261.72;;;11.59;64.14
61618;BME280;47518;51.776;9.370;2023-05-19T06:00:01;101263.56;;;11.58;61.85
61618;BME280;47518;51.776;9.370;2023-05-19T06:02:29;101267.53;;;11.90;61.62
61618;BME280;47518;51.776;9.370;2023-05-19T06:04:58;101262.34;;;12.05;63.17
61618;BME280;47518;51.776;9.370;2023-05-19T06:07:23;101264.44;;;12.27;62.95
61618;BME280;47518;51.776;9.370;2023-05-19T06:09:49;101262.06;;;12.16;59.35
61618;BME280;47518;51.776;9.370;2023-05-19T06:25:11;101260.09;;;11.04;65.41
61618;BME280;47518;51.776;9.370;2023-05-19T06:27:36;101259.97;;;11.32;63.13
61618;BME280;47518;51.776;9.370;2023-05-19T06:30:02;101262.00;;;11.56;63.17
61618;BME280;47518;51.776;9.370;2023-05-19T06:32:27;101256.78;;;11.88;61.12
61618;BME280;47518;51.776;9.370;2023-05-19T06:34:56;101255.88;;;12.06;61.67
61618;BME280;47518;51.776;9.370;2023-05-19T06:37:24;101257.84;;;12.30;58.88
61618;BME280;47518;51.776;9.370;2023-05-19T06:39:51;101252.94;;;12.49;59.45
61618;BME280;47518;51.776;9.370;2023-05-19T06:42:18;101248.03;;;12.61;58.40
61618;BME280;47518;51.776;9.370;2023-05-19T06:44:48;101242.78;;;12.84;57.23
61618;BME280;47518;51.776;9.370;2023-05-19T06:47:14;101237.38;;;13.08;56.46
61618;BME280;47518;51.776;9.370;2023-05-19T06:49:39;101246.56;;;13.15;55.24
61618;BME280;47518;51.776;9.370;2023-05-19T06:52:04;101245.06;;;13.46;55.76
61618;BME280;47518;51.776;9.370;2023-05-19T06:54:30;101248.91;;;13.76;55.57
61618;BME280;47518;51.776;9.370;2023-05-19T06:56:55;101242.13;;;14.11;55.35
61618;BME280;47518;51.776;9.370;2023-05-19T06:59:20;101243.28;;;14.24;54.48
61618;BME280;47518;51.776;9.370;2023-05-19T07:01:47;101235.53;;;14.36;53.30
61618;BME280;47518;51.776;9.370;2023-05-19T07:04:12;101233.78;;;14.43;52.27
61618;BME280;47518;51.776;9.370;2023-05-19T07:06:37;101241.16;;;14.74;52.09
61618;BME280;47518;51.776;9.370;2023-05-19T07:09:03;101231.72;;;14.76;52.33
61618;BME280;47518;51.776;9.370;2023-05-19T07:11:29;101231.31;;;14.87;53.08
61618;BME280;47518;51.776;9.370;2023-05-19T07:13:55;101233.44;;;15.00;53.43
61618;BME280;47518;51.776;9.370;2023-05-19T07:16:20;101230.25;;;14.88;52.67
61618;BME280;47518;51.776;9.370;2023-05-19T07:18:45;101227.22;;;15.44;53.52
61618;BME280;47518;51.776;9.370;2023-05-19T07:21:10;101214.75;;;15.41;53.12
61618;BME280;47518;51.776;9.370;2023-05-19T07:23:37;101216.22;;;15.67;53.92
61618;BME280;47518;51.776;9.370;2023-05-19T07:26:02;101220.47;;;15.69;51.65
61618;BME280;47518;51.776;9.370;2023-05-19T07:28:27;101217.78;;;15.46;49.50
61618;BME280;47518;51.776;9.370;2023-05-19T07:30:53;101215.50;;;15.88;48.81
61618;BME280;47518;51.776;9.370;2023-05-19T07:33:18;101207.63;;;15.85;48.03
61618;BME280;47518;51.776;9.370;2023-05-19T07:36:02;101211.41;;;15.84;48.51
61618;BME280;47518;51.776;9.370;2023-05-19T07:38:32;101211.03;;;16.01;48.65
61618;BME280;47518;51.776;9.370;2023-05-19T07:41:00;101203.94;;;15.92;48.71
61618;BME280;47518;51.776;9.370;2023-05-19T07:43:32;101208.75;;;15.90;48.63
61618;BME280;47518;51.776;9.370;2023-05-19T07:45:59;101205.53;;;16.01;48.11
61618;BME280;47518;51.776;9.370;2023-05-19T07:48:25;101204.31;;;15.89;48.49
61618;BME280;47518;51.776;9.370;2023-05-19T07:50:51;101207.13;;;15.96;48.46
61618;BME280;47518;51.776;9.370;2023-05-19T07:53:26;101198.44;;;16.07;48.11
61618;BME280;47518;51.776;9.370;2023-05-19T07:56:00;101202.03;;;16.08;47.82
61618;BME280;47518;51.776;9.370;2023-05-19T07:58:25;101188.75;;;16.26;46.69
61618;BME280;47518;51.776;9.370;2023-05-19T08:00:51;101198.44;;;16.43;46.44
61618;BME280;47518;51.776;9.370;2023-05-19T08:03:17;101191.97;;;16.29;45.86
61618;BME280;47518;51.776;9.370;2023-05-19T08:05:47;101195.78;;;16.86;45.69
61618;BME280;47518;51.776;9.370;2023-05-19T08:08:15;101192.09;;;17.00;45.48
61618;BME280;47518;51.776;9.370;2023-05-19T08:10:43;101175.88;;;17.27;45.09
61618;BME280;47518;51.776;9.370;2023-05-19T08:13:09;101190.59;;;17.47;44.35
61618;BME280;47518;51.776;9.370;2023-05-19T08:15:34;101187.97;;;17.67;45.24
61618;BME280;47518;51.776;9.370;2023-05-19T08:18:00;101185.03;;;17.68;44.52
61618;BME280;47518;51.776;9.370;2023-05-19T08:20:26;101181.41;;;17.61;44.81
61618;BME280;47518;51.776;9.370;2023-05-19T08:22:52;101174.19;;;17.88;43.96
61618;BME280;47518;51.776;9.370;2023-05-19T08:25:17;101172.69;;;17.86;42.57
61618;BME280;47518;51.776;9.370;2023-05-19T08:27:43;101186.06;;;17.61;43.04
61618;BME280;47518;51.776;9.370;2023-05-19T08:30:10;101171.63;;;17.59;42.64
61618;BME280;47518;51.776;9.370;2023-05-19T08:32:36;101176.94;;;17.88;41.66
61618;BME280;47518;51.776;9.370;2023-05-19T08:35:04;101173.25;;;18.16;40.99
61618;BME280;47518;51.776;9.370;2023-05-19T08:37:29;101169.22;;;18.12;40.91
61618;BME280;47518;51.776;9.370;2023-05-19T08:39:55;101169.16;;;17.98;41.22
61618;BME280;47518;51.776;9.370;2023-05-19T08:42:21;101162.50;;;18.27;40.45
61618;BME280;47518;51.776;9.370;2023-05-19T08:44:47;101160.66;;;18.48;39.91
61618;BME280;47518;51.776;9.370;2023-05-19T08:47:12;101153.63;;;18.38;40.24
61618;BME280;47518;51.776;9.370;2023-05-19T08:49:43;101150.69;;;18.47;39.13
61618;BME280;47518;51.776;9.370;2023-05-19T08:57:49;101137.84;;;18.74;37.34
61618;BME280;47518;51.776;9.370;2023-05-19T09:00:32;101131.28;;;18.81;38.01
61618;BME280;47518;51.776;9.370;2023-05-19T09:02:59;101140.44;;;19.02;37.85
61618;BME280;47518;51.776;9.370;2023-05-19T09:05:25;101139.78;;;19.26;37.77
61618;BME280;47518;51.776;9.370;2023-05-19T09:07:50;101133.41;;;19.19;37.31
61618;BME280;47518;51.776;9.370;2023-05-19T09:10:15;101144.66;;;19.11;37.25
61618;BME280;47518;51.776;9.370;2023-05-19T09:12:45;101130.84;;;19.31;37.67
61618;BME280;47518;51.776;9.370;2023-05-19T09:15:12;101133.84;;;19.22;38.15
61618;BME280;47518;51.776;9.370;2023-05-19T09:17:47;101131.72;;;19.24;37.55
61618;BME280;47518;51.776;9.370;2023-05-19T09:20:13;101128.97;;;19.11;38.21
61618;BME280;47518;51.776;9.370;2023-05-19T09:22:42;101129.59;;;19.20;38.27
61618;BME280;47518;51.776;9.370;2023-05-19T09:25:29;101133.63;;;19.04;39.12
61618;BME280;47518;51.776;9.370;2023-05-19T09:27:59;101125.50;;;18.43;39.38
61618;BME280;47518;51.776;9.370;2023-05-19T09:30:24;101129.31;;;18.42;39.80
61618;BME280;47518;51.776;9.370;2023-05-19T09:32:50;101131.44;;;18.53;39.54
61618;BME280;47518;51.776;9.370;2023-05-19T09:35:16;101125.91;;;18.47;40.49
61618;BME280;47518;51.776;9.370;2023-05-19T09:37:44;101128.09;;;18.84;39.47
61618;BME280;47518;51.776;9.370;2023-05-19T09:40:13;101120.91;;;18.77;38.99
61618;BME280;47518;51.776;9.370;2023-05-19T09:42:39;101122.81;;;18.70;38.86
61618;BME280;47518;51.776;9.370;2023-05-19T09:45:06;101124.25;;;18.52;36.92
61618;BME280;47518;51.776;9.370;2023-05-19T09:47:41;101118.16;;;18.70;36.61
61618;BME280;47518;51.776;9.370;2023-05-19T09:50:11;101112.00;;;18.68;36.07
61618;BME280;47518;51.776;9.370;2023-05-19T09:52:39;101110.09;;;18.69;35.12
61618;BME280;47518;51.776;9.370;2023-05-19T09:55:09;101104.59;;;18.82;35.25
61618;BME280;47518;51.776;9.370;2023-05-19T09:57:56;101101.38;;;19.18;36.73
61618;BME280;47518;51.776;9.370;2023-05-19T10:00:31;101105.59;;;19.40;36.42
61618;BME280;47518;51.776;9.370;2023-05-19T10:02:57;101092.88;;;19.59;35.19
61618;BME280;47518;51.776;9.370;2023-05-19T10:08:15;101091.41;;;20.01;34.38
61618;BME280;47518;51.776;9.370;2023-05-19T10:10:43;101101.06;;;20.24;35.98
61618;BME280;47518;51.776;9.370;2023-05-19T10:13:09;101084.63;;;19.97;36.44
61618;BME280;47518;51.776;9.370;2023-05-19T10:15:36;101094.66;;;19.85;35.78
61618;BME280;47518;51.776;9.370;2023-05-19T10:18:02;101095.78;;;19.71;35.98
61618;BME280;47518;51.776;9.370;2023-05-19T10:20:28;101086.41;;;19.78;35.59
61618;BME280;47518;51.776;9.370;2023-05-19T10:22:54;101086.72;;;19.57;35.61
61618;BME280;47518;51.776;9.370;2023-05-19T10:25:20;101082.03;;;19.44;35.35
61618;BME280;47518;51.776;9.370;2023-05-19T10:27:52;101083.31;;;19.48;36.20
61618;BME280;47518;51.776;9.370;2023-05-19T10:30:26;101073.16;;;19.29;36.46
61618;BME280;47518;51.776;9.370;2023-05-19T10:32:53;101080.44;;;19.10;36.11
61618;BME280;47518;51.776;9.370;2023-05-19T10:38:40;101078.09;;;18.94;36.24
61618;BME280;47518;51.776;9.370;2023-05-19T10:44:07;101078.06;;;19.27;35.31
61618;BME280;47518;51.776;9.370;2023-05-19T10:46:33;101070.00;;;19.26;35.51
61618;BME280;47518;51.776;9.370;2023-05-19T10:48:59;101075.75;;;19.24;36.30
61618;BME280;47518;51.776;9.370;2023-05-19T10:51:29;101084.59;;;19.59;35.95
61618;BME280;47518;51.776;9.370;2023-05-19T10:53:55;101075.47;;;20.42;33.35
61618;BME280;47518;51.776;9.370;2023-05-19T10:56:27;101071.66;;;21.42;33.52
61618;BME280;47518;51.776;9.370;2023-05-19T10:58:53;101074.84;;;21.76;31.53
61618;BME280;47518;51.776;9.370;2023-05-19T11:01:19;101071.06;;;22.25;31.07
61618;BME280;47518;51.776;9.370;2023-05-19T11:03:52;101069.97;;;21.78;31.13
61618;BME280;47518;51.776;9.370;2023-05-19T11:06:26;101070.56;;;21.62;32.15
61618;BME280;47518;51.776;9.370;2023-05-19T11:11:52;101061.75;;;20.60;33.23
61618;BME280;47518;51.776;9.370;2023-05-19T11:14:21;101063.44;;;20.29;34.32
61618;BME280;47518;51.776;9.370;2023-05-19T11:16:50;101051.69;;;20.02;34.21
61618;BME280;47518;51.776;9.370;2023-05-19T11:19:18;101051.38;;;20.55;33.52
61618;BME280;47518;51.776;9.370;2023-05-19T11:21:50;101046.16;;;20.40;34.18
61618;BME280;47518;51.776;9.370;2023-05-19T11:24:39;101053.81;;;20.38;34.24
61618;BME280;47518;51.776;9.370;2023-05-19T11:27:28;101065.34;;;20.29;34.09
61618;BME280;47518;51.776;9.370;2023-05-19T11:29:57;101056.63;;;20.63;33.75
61618;BME280;47518;51.776;9.370;2023-05-19T11:32:26;101053.19;;;20.68;34.17
61618;BME280;47518;51.776;9.370;2023-05-19T11:34:54;101051.00;;;21.93;32.16
61618;BME280;47518;51.776;9.370;2023-05-19T11:37:20;101055.16;;;24.36;28.30
61618;BME280;47518;51.776;9.370;2023-05-19T11:39:46;101052.06;;;24.33;27.50
61618;BME280;47518;51.776;9.370;2023-05-19T11:42:11;101041.66;;;24.00;28.09
61618;BME280;47518;51.776;9.370;2023-05-19T11:44:37;101043.38;;;24.17;28.52
61618;BME280;47518;51.776;9.370;2023-05-19T11:47:03;101040.88;;;24.78;28.12
61618;BME280;47518;51.776;9.370;2023-05-19T11:49:29;101037.84;;;23.89;28.29
61618;BME280;47518;51.776;9.370;2023-05-19T11:51:56;101037.75;;;22.55;30.06
61618;BME280;47518;51.776;9.370;2023-05-19T11:54:31;101035.94;;;22.37;30.66
61618;BME280;47518;51.776;9.370;2023-05-19T11:57:00;101038.94;;;22.36;30.65
61618;BME280;47518;51.776;9.370;2023-05-19T11:59:32;101035.72;;;21.91;31.61
61618;BME280;47518;51.776;9.370;2023-05-19T12:02:02;101027.09;;;21.32;31.78
61618;BME280;47518;51.776;9.370;2023-05-19T12:04:38;101028.19;;;21.31;32.11
61618;BME280;47518;51.776;9.370;2023-05-19T12:07:03;101033.56;;;22.23;30.79
61618;BME280;47518;51.776;9.370;2023-05-19T12:09:29;101030.28;;;22.56;29.80
61618;BME280;47518;51.776;9.370;2023-05-19T12:11:54;101027.91;;;21.69;30.62
61618;BME280;47518;51.776;9.370;2023-05-19T12:14:20;101037.94;;;21.09;32.85
61618;BME280;47518;51.776;9.370;2023-05-19T12:16:46;101040.09;;;20.25;33.12
61618;BME280;47518;51.776;9.370;2023-05-19T12:19:11;101034.03;;;20.73;32.58
61618;BME280;47518;51.776;9.370;2023-05-19T12:21:37;101030.91;;;21.49;32.15
61618;BME280;47518;51.776;9.370;2023-05-19T12:24:03;101021.97;;;21.84;30.96
61618;BME280;47518;51.776;9.370;2023-05-19T12:26:30;101021.38;;;22.65;30.28
61618;BME280;47518;51.776;9.370;2023-05-19T12:28:59;101012.47;;;22.63;29.41
61618;BME280;47518;51.776;9.370;2023-05-19T12:31:25;101010.72;;;22.27;31.01
61618;BME280;47518;51.776;9.370;2023-05-19T12:33:51;101019.09;;;21.42;32.45
61618;BME280;47518;51.776;9.370;2023-05-19T12:36:16;101026.78;;;20.72;33.66
61618;BME280;47518;51.776;9.370;2023-05-19T12:38:43;101019.38;;;20.73;33.29
61618;BME280;47518;51.776;9.370;2023-05-19T12:41:10;101022.16;;;20.73;34.35
61618;BME280;47518;51.776;9.370;2023-05-19T12:43:36;101028.16;;;20.63;33.11
61618;BME280;47518;51.776;9.370;2023-05-19T12:46:11;101025.50;;;21.00;34.37
61618;BME280;47518;51.776;9.370;2023-05-19T12:48:41;101016.03;;;21.32;31.82
61618;BME280;47518;51.776;9.370;2023-05-19T12:51:07;101019.69;;;21.08;32.39
61618;BME280;47518;51.776;9.370;2023-05-19T12:53:32;101014.75;;;21.10;32.38
61618;BME280;47518;51.776;9.370;2023-05-19T12:55:58;101025.22;;;20.83;32.16
61618;BME280;47518;51.776;9.370;2023-05-19T12:58:24;101027.50;;;21.11;31.81
61618;BME280;47518;51.776;9.370;2023-05-19T13:00:49;101020.72;;;21.07;31.03
61618;BME280;47518;51.776;9.370;2023-05-19T13:03:18;101022.00;;;21.29;30.59
61618;BME280;47518;51.776;9.370;2023-05-19T13:05:45;101015.78;;;21.52;30.46
61618;BME280;47518;51.776;9.370;2023-05-19T13:08:14;101010.72;;;21.31;32.91
61618;BME280;47518;51.776;9.370;2023-05-19T13:10:43;101003.28;;;20.88;31.73
61618;BME280;47518;51.776;9.370;2023-05-19T13:13:10;101013.50;;;20.87;31.68
61618;BME280;47518;51.776;9.370;2023-05-19T13:15:39;101013.59;;;21.17;31.76
61618;BME280;47518;51.776;9.370;2023-05-19T13:18:06;101011.19;;;20.84;31.81
61618;BME280;47518;51.776;9.370;2023-05-19T13:20:34;101010.34;;;20.59;32.64
61618;BME280;47518;51.776;9.370;2023-05-19T13:23:00;101009.56;;;20.77;32.77
61618;BME280;47518;51.776;9.370;2023-05-19T13:25:26;101007.13;;;21.05;32.90
61618;BME280;47518;51.776;9.370;2023-05-19T13:27:52;101014.91;;;20.96;31.74
61618;BME280;47518;51.776;9.370;2023-05-19T13:30:19;101013.63;;;20.92;31.23
61618;BME280;47518;51.776;9.370;2023-05-19T13:32:46;101004.91;;;20.95;30.46
61618;BME280;47518;51.776;9.370;2023-05-19T13:35:15;101006.88;;;20.88;31.84
61618;BME280;47518;51.776;9.370;2023-05-19T13:37:41;101006.22;;;21.11;31.80
61618;BME280;47518;51.776;9.370;2023-05-19T13:40:07;101005.28;;;21.17;31.25
61618;BME280;47518;51.776;9.370;2023-05-19T13:42:33;100994.13;;;21.31;31.00